Walton on the Naze, United Kingdom
Current Conditions -  °F | °C
As of 7:50 AM on Friday 24 Oct 2014 (Local Time) from EGUW Reporting Station
Light Rain Light Rain  
Wind Chill: 13°   Ceiling: 500
Heat Index: 13°   Visibility: 6mi
Dew Point: 13°   Wind: 9mph
Humidity: 100%   Direction: 190°S
Pressure: 29.94"   Gusts: NA
Location:  51.85°N, 1.27°E
Report Text: EGUW 240650Z 19008KT 9999 -RA FEW003 BKN005 BKN015 13/13 Q1014 YLO1 TEMPO SCT010 GRN
Loading
Personal Weather Stations






























Interactive Weather Map
Tropical Storm Tracking
New forecast layout! Learn more

10-Day Weather Forecast

Advertisements
Track Severe Weather on mobile